createdAt,value
2019-01-16T00:01:57.437Z,99954.14
2019-01-16T00:04:41.623Z,99955.21
2019-01-16T00:07:31.025Z,99955.09
2019-01-16T00:10:24.692Z,99951.57
2019-01-16T00:13:09.559Z,99945.02
2019-01-16T00:15:47.048Z,99965.66
2019-01-16T00:18:25.736Z,99947.61
2019-01-16T00:21:09.375Z,99941.92
2019-01-16T00:23:52.431Z,99934.09
2019-01-16T00:26:30.855Z,99927.71
2019-01-16T00:29:14.174Z,99930.40
2019-01-16T00:31:57.926Z,99926.75
2019-01-16T00:34:45.033Z,99935.86
2019-01-16T00:37:39.520Z,99925.34
2019-01-16T00:40:38.518Z,99913.94
2019-01-16T00:43:39.876Z,99915.65
2019-01-16T00:46:19.357Z,99915.54
2019-01-16T00:49:16.668Z,99914.27
2019-01-16T00:52:07.110Z,99912.63
2019-01-16T00:55:01.551Z,99897.42
2019-01-16T00:57:41.154Z,99908.27
2019-01-16T01:00:22.868Z,99907.66
2019-01-16T01:03:16.558Z,99913.25
2019-01-16T01:06:07.949Z,99903.23
2019-01-16T01:09:01.649Z,99910.70
2019-01-16T01:11:40.842Z,99902.37
2019-01-16T01:14:38.205Z,99903.89
2019-01-16T01:17:29.965Z,99907.46
2019-01-16T01:20:10.977Z,99905.59
2019-01-16T01:22:57.208Z,99899.70
2019-01-16T01:25:46.199Z,99900.75
2019-01-16T01:28:27.565Z,99903.19
2019-01-16T01:31:12.211Z,99901.80
2019-01-16T01:33:50.904Z,99899.78
2019-01-16T01:36:44.842Z,99900.72
2019-01-16T01:39:50.968Z,99898.17
2019-01-16T01:42:44.271Z,99896.80
2019-01-16T01:45:23.826Z,99907.38
2019-01-16T01:48:03.556Z,99900.80
2019-01-16T01:50:48.596Z,99908.93
2019-01-16T01:53:34.105Z,99909.10
2019-01-16T01:56:29.630Z,99910.62
2019-01-16T01:59:15.830Z,99911.76
2019-01-16T02:01:54.223Z,99902.45
2019-01-16T02:04:46.678Z,99902.72
2019-01-16T02:07:40.141Z,99904.80
2019-01-16T02:10:25.928Z,99903.20
2019-01-16T02:13:18.477Z,99903.95
2019-01-16T02:16:04.572Z,99896.91
2019-01-16T02:19:01.110Z,99893.12
2019-01-16T02:21:51.300Z,99887.02
2019-01-16T02:24:49.685Z,99887.56
2019-01-16T02:27:58.321Z,99876.19
2019-01-16T02:30:56.481Z,99877.41
2019-01-16T02:33:43.196Z,99874.44
2019-01-16T02:36:37.067Z,99881.21
2019-01-16T02:39:34.223Z,99879.30
2019-01-16T02:42:26.664Z,99885.52
2019-01-16T02:45:17.108Z,99877.06
2019-01-16T02:48:02.506Z,99879.83
2019-01-16T02:50:50.271Z,99865.42
2019-01-16T02:53:28.746Z,99865.88
2019-01-16T02:56:07.302Z,99867.31
2019-01-16T02:58:48.651Z,99869.23
2019-01-16T03:01:34.710Z,99861.94
2019-01-16T03:04:29.072Z,99864.51
2019-01-16T03:07:13.321Z,99858.14
2019-01-16T03:09:57.493Z,99853.06
2019-01-16T03:12:36.411Z,99848.72
2019-01-16T03:15:15.627Z,99850.10
2019-01-16T03:18:08.684Z,99839.92
2019-01-16T03:20:58.727Z,99835.06
2019-01-16T03:23:37.258Z,99831.95
2019-01-16T03:26:23.002Z,99836.46
2019-01-16T03:29:01.387Z,99829.52
2019-01-16T03:31:55.883Z,99826.87
2019-01-16T03:34:40.334Z,99829.37
2019-01-16T03:37:32.784Z,99828.43
2019-01-16T03:40:23.583Z,99824.67
2019-01-16T03:43:07.184Z,99822.47
2019-01-16T03:45:49.633Z,99818.16
2019-01-16T03:48:43.162Z,99813.03
2019-01-16T03:51:39.086Z,99814.67
2019-01-16T03:54:36.172Z,99806.53
2019-01-16T03:57:14.968Z,99801.79
2019-01-16T04:00:07.521Z,99806.19
2019-01-16T04:02:46.103Z,99802.94
2019-01-16T04:05:39.525Z,99794.85
2019-01-16T04:08:37.412Z,99790.83
2019-01-16T04:11:26.425Z,99785.62
2019-01-16T04:14:14.604Z,99788.91
2019-01-16T04:17:09.091Z,99783.68
2019-01-16T04:19:51.704Z,99780.30
2019-01-16T04:22:39.552Z,99784.78
2019-01-16T04:25:18.231Z,99770.18
2019-01-16T04:28:10.601Z,99763.30
2019-01-16T04:30:56.898Z,99760.74
2019-01-16T04:33:36.112Z,99752.66
2019-01-16T04:36:24.404Z,99750.91
2019-01-16T04:39:08.429Z,99741.52
2019-01-16T04:42:01.081Z,99740.06
2019-01-16T04:44:51.386Z,99742.83
2019-01-16T04:47:42.762Z,99733.92
2019-01-16T04:50:32.063Z,99730.78
2019-01-16T04:53:10.492Z,99725.84
2019-01-16T04:56:03.219Z,99725.95
2019-01-16T04:58:53.790Z,99719.97
2019-01-16T05:01:32.307Z,99712.98
2019-01-16T05:04:21.297Z,99711.23
2019-01-16T05:07:13.740Z,99709.97
2019-01-16T05:10:06.594Z,99712.04
2019-01-16T05:12:46.025Z,99706.84
2019-01-16T05:15:36.288Z,99702.80
2019-01-16T05:18:27.598Z,99700.56
2019-01-16T05:21:11.381Z,99692.55
2019-01-16T05:24:04.031Z,99694.96
2019-01-16T05:26:52.579Z,99693.54
2019-01-16T05:29:47.490Z,99677.75
2019-01-16T05:32:36.853Z,99681.39
2019-01-16T05:35:15.239Z,99679.30
2019-01-16T05:37:54.540Z,99681.55
2019-01-16T05:40:48.784Z,99677.76
2019-01-16T05:43:55.272Z,99675.59
2019-01-16T05:46:38.389Z,99672.35
2019-01-16T05:49:17.378Z,99675.82
2019-01-16T05:52:08.117Z,99662.02
2019-01-16T05:54:46.553Z,99660.14
2019-01-16T05:57:35.859Z,99664.16
2019-01-16T06:00:32.457Z,99655.62
2019-01-16T06:03:30.923Z,99654.80
2019-01-16T06:06:21.309Z,99651.49
2019-01-16T06:09:17.660Z,99650.67
2019-01-16T06:12:10.911Z,99654.85
2019-01-16T06:15:05.404Z,99648.27
2019-01-16T06:17:55.516Z,99652.98
2019-01-16T06:20:43.804Z,99649.20
2019-01-16T06:23:38.230Z,99641.70
2019-01-16T06:26:19.500Z,99643.86
2019-01-16T06:29:03.667Z,99644.91
2019-01-16T06:31:51.715Z,99649.64
2019-01-16T06:34:34.725Z,99646.07
2019-01-16T06:37:28.904Z,99650.73
2019-01-16T06:40:24.419Z,99641.49
2019-01-16T06:43:03.015Z,99647.39
2019-01-16T06:45:49.850Z,99651.08
2019-01-16T06:48:40.249Z,99641.33
2019-01-16T06:51:25.844Z,99642.27
2019-01-16T06:54:08.312Z,99650.03
2019-01-16T06:57:03.240Z,99649.73
2019-01-16T06:59:56.502Z,99651.34
2019-01-16T07:02:52.427Z,99642.75
2019-01-16T07:05:46.918Z,99642.54
2019-01-16T07:08:31.580Z,99645.67
2019-01-16T07:11:17.672Z,99636.33
2019-01-16T07:14:08.032Z,99635.29
2019-01-16T07:17:01.461Z,99637.76
2019-01-16T07:19:57.460Z,99638.08
2019-01-16T07:22:53.793Z,99640.02
2019-01-16T07:25:46.853Z,99631.31
2019-01-16T07:28:34.252Z,99637.59
2019-01-16T07:31:22.064Z,99640.45
2019-01-16T07:34:02.117Z,99641.00
2019-01-16T07:36:40.961Z,99638.30
2019-01-16T07:39:42.653Z,99631.75
2019-01-16T07:42:46.834Z,99627.29
2019-01-16T07:45:26.922Z,99627.63
2019-01-16T07:48:10.045Z,99623.88
2019-01-16T07:51:04.231Z,99630.44
2019-01-16T07:53:44.350Z,99627.58
2019-01-16T07:56:23.107Z,99634.98
2019-01-16T07:59:21.707Z,99633.30
2019-01-16T08:02:09.288Z,99635.92
2019-01-16T08:04:54.501Z,99628.56
2019-01-16T08:07:41.978Z,99630.31
2019-01-16T08:10:36.146Z,99634.66
2019-01-16T08:13:25.589Z,99636.53
2019-01-16T08:16:05.979Z,99637.98
2019-01-16T08:18:53.322Z,99644.19
2019-01-16T08:21:41.503Z,99642.22
2019-01-16T08:24:20.250Z,99633.95
2019-01-16T08:27:15.126Z,99636.98
2019-01-16T08:30:05.328Z,99641.09
2019-01-16T08:33:02.282Z,99645.66
2019-01-16T08:35:54.315Z,99641.31
2019-01-16T08:38:45.320Z,99634.94
2019-01-16T08:41:33.250Z,99641.44
2019-01-16T08:44:16.071Z,99642.37
2019-01-16T08:47:13.629Z,99644.83
2019-01-16T08:50:12.626Z,99636.27
2019-01-16T08:53:19.614Z,99634.17
2019-01-16T08:56:12.054Z,99629.22
2019-01-16T08:58:52.177Z,99621.69
2019-01-16T09:01:37.604Z,99622.02
2019-01-16T09:04:32.999Z,99625.80
2019-01-16T09:07:31.792Z,99622.95
2019-01-16T09:10:29.353Z,99623.45
2019-01-16T09:13:18.518Z,99610.52
2019-01-16T09:15:56.872Z,99619.81
2019-01-16T09:18:40.432Z,99621.14
2019-01-16T09:21:36.323Z,99614.76
2019-01-16T09:24:41.123Z,99619.81
2019-01-16T09:27:52.204Z,99615.57
2019-01-16T09:31:01.850Z,99607.66
2019-01-16T09:33:50.445Z,99611.28
2019-01-16T09:36:45.301Z,99619.11
2019-01-16T09:39:45.702Z,99611.78
2019-01-16T09:42:29.987Z,99604.63
2019-01-16T09:45:13.837Z,99602.44
2019-01-16T09:47:53.553Z,99590.88
2019-01-16T09:50:48.045Z,99593.56
2019-01-16T09:53:44.399Z,99585.49
2019-01-16T09:56:37.866Z,99575.30
2019-01-16T09:59:24.984Z,99566.50
2019-01-16T10:02:09.678Z,99574.60
2019-01-16T10:04:58.803Z,99560.73
2019-01-16T10:07:43.835Z,99573.71
2019-01-16T10:10:34.656Z,99570.09
2019-01-16T10:13:16.340Z,99562.56
2019-01-16T10:16:11.765Z,99565.26
2019-01-16T10:19:14.987Z,99564.54
2019-01-16T10:21:54.902Z,99562.61
2019-01-16T10:24:41.120Z,99557.60
2019-01-16T10:27:26.799Z,99550.28
2019-01-16T10:30:19.771Z,99525.38
2019-01-16T10:33:06.213Z,99544.23
2019-01-16T10:36:00.560Z,99549.64
2019-01-16T10:38:52.680Z,99555.46
2019-01-16T10:41:48.589Z,99539.34
2019-01-16T10:44:32.564Z,99531.97
2019-01-16T10:47:16.289Z,99532.75
2019-01-16T10:50:11.923Z,99523.91
2019-01-16T10:53:07.643Z,99521.96
2019-01-16T10:56:02.814Z,99528.06
2019-01-16T10:58:59.493Z,99522.41
2019-01-16T11:01:46.172Z,99520.87
2019-01-16T11:04:43.767Z,99505.80
2019-01-16T11:07:37.942Z,99511.23
2019-01-16T11:10:18.983Z,99512.95
2019-01-16T11:12:58.129Z,99499.30
2019-01-16T11:15:47.616Z,99486.55
2019-01-16T11:18:26.432Z,99482.37
2019-01-16T11:21:11.195Z,99478.08
2019-01-16T11:24:00.113Z,99471.36
2019-01-16T11:26:45.352Z,99463.12
2019-01-16T11:29:41.686Z,99446.39
2019-01-16T11:32:36.587Z,99454.14
2019-01-16T11:35:24.725Z,99446.52
2019-01-16T11:38:25.776Z,99443.76
2019-01-16T11:41:10.027Z,99434.08
2019-01-16T11:43:58.259Z,99433.35
2019-01-16T11:46:43.237Z,99429.94
2019-01-16T11:49:36.777Z,99422.85
2019-01-16T11:52:15.808Z,99421.64
2019-01-16T11:54:54.319Z,99413.84
2019-01-16T11:57:36.556Z,99408.55
2019-01-16T12:00:27.039Z,99405.31
2019-01-16T12:03:13.258Z,99406.31
2019-01-16T12:06:07.948Z,99400.59
2019-01-16T12:08:59.730Z,99396.97
2019-01-16T12:11:55.589Z,99390.66
2019-01-16T12:14:41.388Z,99399.95
2019-01-16T12:17:19.894Z,99382.09
2019-01-16T12:19:58.814Z,99371.80
2019-01-16T12:22:54.546Z,99371.30
2019-01-16T12:25:52.113Z,99360.65
2019-01-16T12:28:37.672Z,99365.20
2019-01-16T12:31:17.955Z,99352.08
2019-01-16T12:33:57.999Z,99357.67
2019-01-16T12:36:55.539Z,99353.73
2019-01-16T12:39:35.309Z,99348.13
2019-01-16T12:42:26.565Z,99346.92
2019-01-16T12:45:16.163Z,99344.45
2019-01-16T12:47:56.157Z,99323.83
2019-01-16T12:50:47.370Z,99321.38
2019-01-16T12:53:37.355Z,99309.66
2019-01-16T12:56:33.904Z,99297.34
2019-01-16T12:59:16.160Z,99296.25
2019-01-16T13:02:12.443Z,99289.50
2019-01-16T13:04:59.962Z,99264.81
2019-01-16T13:07:56.367Z,99272.72
2019-01-16T13:11:01.843Z,99275.03
2019-01-16T13:14:04.276Z,99267.00
2019-01-16T13:17:20.419Z,99264.95
2019-01-16T13:20:24.105Z,99262.17
2019-01-16T13:23:11.248Z,99247.95
2019-01-16T13:26:08.608Z,99242.83
2019-01-16T13:29:14.776Z,99238.21
2019-01-16T13:31:56.624Z,99233.71
2019-01-16T13:34:37.321Z,99228.81
2019-01-16T13:37:27.499Z,99219.91
2019-01-16T13:40:20.576Z,99223.74
2019-01-16T13:43:32.904Z,99219.39
2019-01-16T13:46:13.658Z,99212.73
2019-01-16T13:49:00.822Z,99213.86
2019-01-16T13:51:50.351Z,99205.88
2019-01-16T13:54:44.433Z,99193.23
2019-01-16T13:57:45.277Z,99194.02
2019-01-16T14:00:41.616Z,99190.34
2019-01-16T14:03:20.777Z,99188.28
2019-01-16T14:06:13.384Z,99185.75
2019-01-16T14:09:02.634Z,99174.14
2019-01-16T14:11:44.359Z,99166.28
2019-01-16T14:14:29.263Z,99165.13
2019-01-16T14:17:34.558Z,99156.91
2019-01-16T14:20:25.501Z,99153.38
2019-01-16T14:23:18.213Z,99151.61
2019-01-16T14:26:04.107Z,99146.20
2019-01-16T14:28:58.183Z,99141.63
2019-01-16T14:31:39.283Z,99139.56
2019-01-16T14:34:27.460Z,99130.98
2019-01-16T14:37:22.409Z,99129.41
2019-01-16T14:40:01.548Z,99131.94
2019-01-16T14:42:40.860Z,99132.02
2019-01-16T14:45:38.523Z,99131.91
2019-01-16T14:48:45.295Z,99122.84
2019-01-16T14:51:27.021Z,99117.13
2019-01-16T14:54:06.940Z,99109.87
2019-01-16T14:56:46.193Z,99109.34
2019-01-16T14:59:39.101Z,99105.73
2019-01-16T15:02:28.087Z,99106.66
2019-01-16T15:05:07.221Z,99104.61
2019-01-16T15:07:53.544Z,99094.81
2019-01-16T15:10:46.804Z,99086.27
2019-01-16T15:13:36.801Z,99083.78
2019-01-16T15:16:15.680Z,99078.57
2019-01-16T15:19:01.286Z,99069.87
2019-01-16T15:21:54.871Z,99076.42
2019-01-16T15:24:42.293Z,99075.58
2019-01-16T15:27:22.250Z,99068.34
2019-01-16T15:30:01.156Z,99070.31
2019-01-16T15:33:01.297Z,99064.88
2019-01-16T15:35:58.834Z,99057.10
2019-01-16T15:38:45.566Z,99058.56
2019-01-16T15:41:29.533Z,99045.47
2019-01-16T15:44:19.596Z,99041.64
2019-01-16T15:47:07.484Z,99038.73
2019-01-16T15:50:22.719Z,99040.84
2019-01-16T15:53:16.503Z,99025.33
2019-01-16T15:56:13.646Z,99014.98
2019-01-16T15:59:26.121Z,99015.84
2019-01-16T16:02:29.510Z,99013.96
2019-01-16T16:05:31.420Z,98998.48
2019-01-16T16:08:13.617Z,98998.23
2019-01-16T16:11:08.897Z,98983.38
2019-01-16T16:13:56.992Z,98979.69
2019-01-16T16:16:49.077Z,98977.70
2019-01-16T16:19:38.881Z,98970.75
2019-01-16T16:22:25.976Z,98971.66
2019-01-16T16:25:06.424Z,98962.77
2019-01-16T16:27:47.359Z,98955.88
2019-01-16T16:30:43.061Z,98951.81
2019-01-16T16:33:53.743Z,98949.16
2019-01-16T16:36:44.462Z,98944.08
2019-01-16T16:39:37.483Z,98933.03
2019-01-16T16:42:36.181Z,98939.42
2019-01-16T16:45:38.342Z,98928.75
2019-01-16T16:48:16.950Z,98927.75
2019-01-16T16:51:05.913Z,98928.48
2019-01-16T16:53:54.492Z,98925.50
2019-01-16T16:56:34.309Z,98920.84
2019-01-16T16:59:21.759Z,98925.44
2019-01-16T17:02:14.405Z,98928.06
2019-01-16T17:05:13.801Z,98923.67
2019-01-16T17:08:09.765Z,98920.32
2019-01-16T17:11:05.358Z,98914.78
2019-01-16T17:14:11.008Z,98906.88
2019-01-16T17:17:09.771Z,98906.58
2019-01-16T17:20:06.956Z,98910.08
2019-01-16T17:23:05.133Z,98911.81
2019-01-16T17:25:59.626Z,98910.59
2019-01-16T17:28:39.550Z,98908.73
2019-01-16T17:31:21.161Z,98901.66
2019-01-16T17:34:15.405Z,98897.84
2019-01-16T17:37:05.802Z,98892.58
2019-01-16T17:39:49.251Z,98887.33
2019-01-16T17:42:49.707Z,98890.80
2019-01-16T17:45:33.736Z,98890.48
2019-01-16T17:48:33.336Z,98889.41
2019-01-16T17:51:29.818Z,98885.73
2019-01-16T17:54:28.496Z,98875.38
2019-01-16T17:57:25.029Z,98878.98
2019-01-16T18:00:19.015Z,98879.78
2019-01-16T18:03:07.643Z,98873.75
2019-01-16T18:05:50.535Z,98875.66
2019-01-16T18:08:59.514Z,98867.14
2019-01-16T18:11:39.464Z,98871.34
2019-01-16T18:14:32.518Z,98880.06
2019-01-16T18:17:12.365Z,98883.48
2019-01-16T18:20:05.323Z,98869.03
2019-01-16T18:22:54.961Z,98869.27
2019-01-16T18:25:39.967Z,98869.69
2019-01-16T18:28:28.491Z,98869.25
2019-01-16T18:31:06.989Z,98866.47
2019-01-16T18:34:10.025Z,98865.81
2019-01-16T18:37:04.931Z,98860.19
2019-01-16T18:40:00.031Z,98870.30
2019-01-16T18:42:38.558Z,98870.66
2019-01-16T18:45:21.240Z,98875.53
2019-01-16T18:48:00.152Z,98869.28
2019-01-16T18:50:56.830Z,98868.17
2019-01-16T18:54:00.559Z,98868.56
2019-01-16T18:56:47.864Z,98877.20
2019-01-16T18:59:45.834Z,98866.22
2019-01-16T19:02:37.154Z,98862.06
2019-01-16T19:05:18.321Z,98874.14
2019-01-16T19:08:10.510Z,98880.41
2019-01-16T19:10:49.210Z,98861.86
2019-01-16T19:13:46.751Z,98875.79
2019-01-16T19:16:53.642Z,98882.68
2019-01-16T19:19:52.940Z,98889.59
2019-01-16T19:22:38.122Z,98878.83
2019-01-16T19:25:35.671Z,98858.44
2019-01-16T19:28:47.444Z,98841.95
2019-01-16T19:31:36.844Z,98852.35
2019-01-16T19:34:23.913Z,98849.20
2019-01-16T19:37:18.140Z,98836.34
2019-01-16T19:40:14.883Z,98850.31
2019-01-16T19:43:14.582Z,98837.69
2019-01-16T19:46:03.256Z,98846.22
2019-01-16T19:48:59.800Z,98832.20
2019-01-16T19:51:55.403Z,98821.03
2019-01-16T19:54:35.515Z,98818.98
2019-01-16T19:57:30.365Z,98816.55
2019-01-16T20:00:38.379Z,98816.42
2019-01-16T20:03:37.490Z,98816.31
2019-01-16T20:06:28.772Z,98817.56
2019-01-16T20:09:13.524Z,98806.86
2019-01-16T20:12:12.036Z,98799.76
2019-01-16T20:14:59.359Z,98790.80
2019-01-16T20:17:47.038Z,98794.33
2019-01-16T20:20:43.199Z,98786.11
2019-01-16T20:23:27.064Z,98784.54
2019-01-16T20:26:07.716Z,98793.47
2019-01-16T20:29:03.761Z,98781.09
2019-01-16T20:32:04.183Z,98772.27
2019-01-16T20:34:57.662Z,98766.00
2019-01-16T20:37:56.445Z,98757.77
2019-01-16T20:40:50.531Z,98761.77
2019-01-16T20:43:50.041Z,98765.87
2019-01-16T20:46:30.442Z,98768.77
2019-01-16T20:49:25.200Z,98760.77
2019-01-16T20:52:38.322Z,98757.89
2019-01-16T20:55:25.648Z,98748.25
2019-01-16T20:58:05.986Z,98753.35
2019-01-16T21:00:51.691Z,98760.17
2019-01-16T21:03:46.555Z,98761.30
2019-01-16T21:06:31.385Z,98757.41
2019-01-16T21:09:13.327Z,98738.41
2019-01-16T21:12:07.333Z,98737.84
2019-01-16T21:14:51.071Z,98736.89
2019-01-16T21:17:32.559Z,98736.63
2019-01-16T21:20:15.317Z,98753.27
2019-01-16T21:23:05.241Z,98757.36
2019-01-16T21:25:56.089Z,98747.80
2019-01-16T21:28:51.586Z,98746.50
2019-01-16T21:32:00.714Z,98746.33
2019-01-16T21:34:57.047Z,98738.38
2019-01-16T21:37:58.914Z,98734.91
2019-01-16T21:40:55.858Z,98724.90
2019-01-16T21:44:05.302Z,98736.91
2019-01-16T21:46:44.115Z,98726.14
2019-01-16T21:49:22.346Z,98725.75
2019-01-16T21:52:07.815Z,98717.92
2019-01-16T21:54:51.861Z,98712.70
2019-01-16T21:57:33.652Z,98719.69
2019-01-16T22:00:20.655Z,98721.44
2019-01-16T22:03:19.364Z,98708.59
2019-01-16T22:06:09.820Z,98696.38
2019-01-16T22:08:59.744Z,98706.39
2019-01-16T22:11:39.336Z,98715.19
2019-01-16T22:14:26.585Z,98704.47
2019-01-16T22:17:05.517Z,98712.18
2019-01-16T22:19:49.169Z,98712.96
2019-01-16T22:22:39.054Z,98694.77
2019-01-16T22:25:18.639Z,98715.75
2019-01-16T22:28:01.210Z,98712.30
2019-01-16T22:30:42.620Z,98706.41
2019-01-16T22:33:36.874Z,98708.80
2019-01-16T22:36:33.006Z,98705.63
2019-01-16T22:39:27.700Z,98704.52
2019-01-16T22:42:13.386Z,98697.30
2019-01-16T22:44:58.864Z,98703.95
2019-01-16T22:47:53.558Z,98700.89
2019-01-16T22:50:50.919Z,98697.41
2019-01-16T22:53:43.443Z,98689.55
2019-01-16T22:56:36.651Z,98691.42
2019-01-16T22:59:23.333Z,98688.73
2019-01-16T23:02:17.821Z,98696.48
2019-01-16T23:05:22.562Z,98683.59
2019-01-16T23:08:08.415Z,98682.01
2019-01-16T23:10:53.726Z,98678.05
2019-01-16T23:13:47.799Z,98668.02
2019-01-16T23:16:38.183Z,98667.84
2019-01-16T23:19:33.511Z,98670.50
2019-01-16T23:22:26.560Z,98668.73
2019-01-16T23:25:28.104Z,98660.26
2019-01-16T23:28:14.342Z,98666.72
2019-01-16T23:31:15.157Z,98660.67
2019-01-16T23:34:00.840Z,98656.33
2019-01-16T23:36:59.035Z,98661.95
2019-01-16T23:40:08.526Z,98655.05
2019-01-16T23:43:15.854Z,98663.23
2019-01-16T23:46:25.090Z,98656.19
2019-01-16T23:49:32.279Z,98665.22
2019-01-16T23:52:23.275Z,98660.97
2019-01-16T23:55:14.385Z,98666.26
2019-01-16T23:58:00.747Z,98659.52
